createdAt,value
2023-02-16T00:00:48.705Z,100429.94
2023-02-16T00:03:21.384Z,100439.44
2023-02-16T00:05:53.216Z,100428.25
2023-02-16T00:08:25.950Z,100435.13
2023-02-16T00:11:16.236Z,100433.13
2023-02-16T00:13:53.170Z,100427.50
2023-02-16T00:16:25.233Z,100431.94
2023-02-16T00:18:56.945Z,100427.34
2023-02-16T00:21:28.593Z,100425.19
2023-02-16T00:24:00.135Z,100422.34
2023-02-16T00:26:34.237Z,100426.09
2023-02-16T00:29:06.051Z,100432.22
2023-02-16T00:31:37.811Z,100432.28
2023-02-16T00:34:29.798Z,100430.63
2023-02-16T00:37:03.415Z,100430.78
2023-02-16T00:39:35.561Z,100427.19
2023-02-16T00:42:27.092Z,100425.59
2023-02-16T00:44:59.377Z,100433.78
2023-02-16T00:47:31.130Z,100430.44
2023-02-16T00:50:04.344Z,100430.50
2023-02-16T00:52:37.527Z,100421.19
2023-02-16T00:55:11.828Z,100418.34
2023-02-16T00:57:43.594Z,100422.09
2023-02-16T01:00:24.326Z,100430.03
2023-02-16T01:03:00.430Z,100438.84
2023-02-16T01:05:32.047Z,100433.47
2023-02-16T01:08:33.504Z,100424.25
2023-02-16T01:11:07.624Z,100419.59
2023-02-16T01:13:44.814Z,100415.66
2023-02-16T01:16:18.340Z,100407.81
2023-02-16T01:18:50.387Z,100403.75
2023-02-16T01:21:24.576Z,100414.47
2023-02-16T01:23:57.511Z,100404.78
2023-02-16T01:26:29.729Z,100405.22
2023-02-16T01:29:01.687Z,100402.84
2023-02-16T01:31:33.574Z,100403.34
2023-02-16T01:34:07.559Z,100406.66
2023-02-16T01:36:40.280Z,100392.78
2023-02-16T01:39:13.335Z,100393.38
2023-02-16T01:41:57.166Z,100401.75
2023-02-16T01:44:49.794Z,100394.66
2023-02-16T01:47:39.985Z,100388.84
2023-02-16T01:50:16.006Z,100391.13
2023-02-16T01:52:55.534Z,100384.16
2023-02-16T01:55:37.085Z,100375.59
2023-02-16T01:58:29.037Z,100377.03
2023-02-16T02:01:00.688Z,100367.16
2023-02-16T02:03:53.146Z,100362.63
2023-02-16T02:06:34.082Z,100362.63
2023-02-16T02:09:17.801Z,100354.56
2023-02-16T02:12:15.796Z,100361.38
2023-02-16T02:14:49.035Z,100358.13
2023-02-16T02:17:24.775Z,100357.94
2023-02-16T02:20:02.179Z,100358.78
2023-02-16T02:23:02.749Z,100355.34
2023-02-16T02:25:54.164Z,100361.69
2023-02-16T02:28:38.096Z,100365.72
2023-02-16T02:31:19.281Z,100362.09
2023-02-16T02:34:04.347Z,100351.47
2023-02-16T02:36:40.661Z,100348.19
2023-02-16T02:39:26.802Z,100345.50
2023-02-16T02:42:09.993Z,100339.22
2023-02-16T02:44:51.138Z,100334.88
2023-02-16T02:47:22.972Z,100333.34
2023-02-16T02:49:54.882Z,100334.19
2023-02-16T02:52:26.648Z,100335.88
2023-02-16T02:55:17.620Z,100336.94
2023-02-16T02:58:08.905Z,100337.28
2023-02-16T03:00:44.835Z,100326.97
2023-02-16T03:03:27.784Z,100328.81
2023-02-16T03:06:03.057Z,100332.31
2023-02-16T03:08:36.227Z,100322.78
2023-02-16T03:11:26.483Z,100319.41
2023-02-16T03:13:59.911Z,100317.22
2023-02-16T03:16:34.902Z,100326.59
2023-02-16T03:19:27.161Z,100330.72
2023-02-16T03:22:18.606Z,100336.59
2023-02-16T03:25:08.891Z,100335.38
2023-02-16T03:28:00.564Z,100329.91
2023-02-16T03:30:32.314Z,100332.59
2023-02-16T03:33:04.142Z,100332.66
2023-02-16T03:35:36.910Z,100331.84
2023-02-16T03:38:08.788Z,100323.38
2023-02-16T03:40:42.889Z,100322.53
2023-02-16T03:43:14.571Z,100326.47
2023-02-16T03:45:46.750Z,100320.41
2023-02-16T03:48:18.479Z,100324.72
2023-02-16T03:50:50.064Z,100326.13
2023-02-16T03:53:21.690Z,100332.19
2023-02-16T03:55:53.322Z,100327.72
2023-02-16T03:58:25.004Z,100334.00
2023-02-16T04:00:58.937Z,100342.19
2023-02-16T04:03:30.716Z,100331.66
2023-02-16T04:06:02.328Z,100327.44
2023-02-16T04:08:33.972Z,100332.56
2023-02-16T04:11:25.826Z,100330.72
2023-02-16T04:13:57.456Z,100334.47
2023-02-16T04:16:29.129Z,100336.09
2023-02-16T04:19:00.820Z,100340.13
2023-02-16T04:21:32.434Z,100337.19
2023-02-16T04:24:05.841Z,100337.38
2023-02-16T04:26:37.481Z,100337.69
2023-02-16T04:29:09.050Z,100331.66
2023-02-16T04:31:40.661Z,100333.25
2023-02-16T04:34:12.443Z,100327.13
2023-02-16T04:36:44.046Z,100319.91
2023-02-16T04:39:15.669Z,100332.84
2023-02-16T04:41:48.636Z,100325.81
2023-02-16T04:44:20.277Z,100317.41
2023-02-16T04:46:51.850Z,100318.16
2023-02-16T04:49:23.593Z,100311.38
2023-02-16T04:51:55.130Z,100321.78
2023-02-16T04:54:27.957Z,100315.47
2023-02-16T04:56:59.769Z,100311.84
2023-02-16T04:59:31.454Z,100316.59
2023-02-16T05:02:03.322Z,100317.34
2023-02-16T05:04:35.039Z,100312.09
2023-02-16T05:07:06.753Z,100306.72
2023-02-16T05:09:38.349Z,100308.41
2023-02-16T05:12:29.707Z,100308.16
2023-02-16T05:15:01.782Z,100308.75
2023-02-16T05:17:33.382Z,100311.41
2023-02-16T05:20:05.286Z,100308.00
2023-02-16T05:22:39.217Z,100305.22
2023-02-16T05:25:13.017Z,100305.41
2023-02-16T05:27:44.641Z,100318.63
2023-02-16T05:30:16.475Z,100311.72
2023-02-16T05:32:48.095Z,100313.75
2023-02-16T05:35:19.762Z,100303.59
2023-02-16T05:37:51.368Z,100299.63
2023-02-16T05:40:23.006Z,100304.22
2023-02-16T05:42:54.913Z,100306.84
2023-02-16T05:45:27.083Z,100310.34
2023-02-16T05:47:58.700Z,100313.03
2023-02-16T05:50:33.074Z,100315.78
2023-02-16T05:53:05.311Z,100314.09
2023-02-16T05:55:36.975Z,100318.97
2023-02-16T05:58:08.686Z,100318.25
2023-02-16T06:00:42.412Z,100320.59
2023-02-16T06:03:15.513Z,100322.03
2023-02-16T06:05:47.423Z,100324.38
2023-02-16T06:08:18.991Z,100327.81
2023-02-16T06:10:54.454Z,100339.13
2023-02-16T06:13:26.387Z,100345.16
2023-02-16T06:15:58.091Z,100327.88
2023-02-16T06:18:30.172Z,100338.13
2023-02-16T06:21:03.429Z,100334.63
2023-02-16T06:23:35.349Z,100333.19
2023-02-16T06:26:10.430Z,100322.94
2023-02-16T06:28:42.089Z,100335.63
2023-02-16T06:31:14.223Z,100335.22
2023-02-16T06:33:46.017Z,100345.44
2023-02-16T06:36:17.889Z,100346.03
2023-02-16T06:38:49.616Z,100341.53
2023-02-16T06:41:31.722Z,100343.81
2023-02-16T06:44:05.489Z,100345.50
2023-02-16T06:46:37.547Z,100346.41
2023-02-16T06:49:12.071Z,100335.00
2023-02-16T06:51:44.157Z,100339.28
2023-02-16T06:54:16.567Z,100337.69
2023-02-16T06:56:48.287Z,100336.00
2023-02-16T06:59:19.945Z,100328.97
2023-02-16T07:01:51.608Z,100339.53
2023-02-16T07:04:23.161Z,100343.03
2023-02-16T07:06:54.794Z,100347.06
2023-02-16T07:09:26.464Z,100348.91
2023-02-16T07:11:58.554Z,100350.38
2023-02-16T07:14:30.909Z,100355.66
2023-02-16T07:17:04.532Z,100344.16
2023-02-16T07:19:36.192Z,100345.50
2023-02-16T07:22:07.929Z,100344.41
2023-02-16T07:24:39.676Z,100340.66
2023-02-16T07:27:11.392Z,100343.25
2023-02-16T07:29:43.191Z,100343.09
2023-02-16T07:32:14.904Z,100345.63
2023-02-16T07:34:46.666Z,100339.06
2023-02-16T07:37:18.288Z,100341.09
2023-02-16T07:39:49.989Z,100334.16
2023-02-16T07:42:21.986Z,100335.81
2023-02-16T07:44:56.255Z,100333.63
2023-02-16T07:47:27.982Z,100327.69
2023-02-16T07:49:59.511Z,100333.84
2023-02-16T07:52:31.488Z,100329.84
2023-02-16T07:55:03.669Z,100328.75
2023-02-16T07:57:35.444Z,100328.19
2023-02-16T08:00:08.135Z,100331.84
2023-02-16T08:02:45.434Z,100322.88
2023-02-16T08:05:17.381Z,100319.53
2023-02-16T08:07:49.229Z,100314.41
2023-02-16T08:10:21.710Z,100314.00
2023-02-16T08:12:53.482Z,100310.28
2023-02-16T08:15:27.222Z,100313.81
2023-02-16T08:17:59.010Z,100307.31
2023-02-16T08:20:48.237Z,100322.41
2023-02-16T08:23:22.305Z,100322.59
2023-02-16T08:25:54.417Z,100328.19
2023-02-16T08:28:28.990Z,100319.97
2023-02-16T08:31:03.400Z,100330.28
2023-02-16T08:33:38.043Z,100322.47
2023-02-16T08:36:23.624Z,100323.66
2023-02-16T08:38:55.619Z,100319.06
2023-02-16T08:41:31.894Z,100323.50
2023-02-16T08:44:04.793Z,100317.16
2023-02-16T08:46:39.268Z,100318.78
2023-02-16T08:49:11.817Z,100322.34
2023-02-16T08:51:45.163Z,100327.06
2023-02-16T08:54:18.038Z,100324.47
2023-02-16T08:56:51.013Z,100323.34
2023-02-16T08:59:25.122Z,100322.88
2023-02-16T09:01:59.202Z,100317.34
2023-02-16T09:04:31.226Z,100321.59
2023-02-16T09:07:03.646Z,100301.50
2023-02-16T09:09:35.366Z,100306.84
2023-02-16T09:12:06.991Z,100302.19
2023-02-16T09:14:38.732Z,100308.03
2023-02-16T09:17:10.522Z,100309.03
2023-02-16T09:19:43.678Z,100306.81
2023-02-16T09:22:15.468Z,100307.78
2023-02-16T09:24:47.379Z,100305.81
2023-02-16T09:27:20.162Z,100314.09
2023-02-16T09:29:51.915Z,100308.34
2023-02-16T09:32:27.860Z,100306.56
2023-02-16T09:35:02.347Z,100306.59
2023-02-16T09:37:34.213Z,100300.97
2023-02-16T09:40:06.426Z,100301.16
2023-02-16T09:42:51.363Z,100293.81
2023-02-16T09:45:24.499Z,100300.38
2023-02-16T09:47:59.361Z,100301.78
2023-02-16T09:50:52.496Z,100302.38
2023-02-16T09:53:32.879Z,100307.34
2023-02-16T09:56:09.060Z,100297.31
2023-02-16T09:59:03.385Z,100295.88
2023-02-16T10:01:42.601Z,100291.69
2023-02-16T10:04:20.389Z,100295.19
2023-02-16T10:07:22.105Z,100284.00
2023-02-16T10:09:56.582Z,100282.53
2023-02-16T10:12:32.487Z,100277.91
2023-02-16T10:15:09.580Z,100278.91
2023-02-16T10:17:46.973Z,100285.81
2023-02-16T10:20:23.231Z,100285.59
2023-02-16T10:23:02.415Z,100283.94
2023-02-16T10:25:33.996Z,100277.13
2023-02-16T10:28:21.771Z,100274.19
2023-02-16T10:31:06.069Z,100274.16
2023-02-16T10:33:58.269Z,100270.22
2023-02-16T10:36:42.131Z,100268.38
2023-02-16T10:39:13.811Z,100265.06
2023-02-16T10:42:07.182Z,100260.41
2023-02-16T10:44:46.095Z,100258.53
2023-02-16T10:47:35.725Z,100254.84
2023-02-16T10:50:16.134Z,100250.19
2023-02-16T10:52:47.932Z,100240.66
2023-02-16T10:55:19.697Z,100230.16
2023-02-16T10:57:54.467Z,100229.31
2023-02-16T11:00:49.177Z,100231.72
2023-02-16T11:03:24.206Z,100232.81
2023-02-16T11:05:56.152Z,100231.19
2023-02-16T11:08:47.003Z,100226.19
2023-02-16T11:11:19.319Z,100230.50
2023-02-16T11:13:57.744Z,100232.31
2023-02-16T11:16:29.908Z,100229.78
2023-02-16T11:19:05.982Z,100223.13
2023-02-16T11:21:46.464Z,100213.72
2023-02-16T11:24:28.813Z,100219.75
2023-02-16T11:27:20.818Z,100204.34
2023-02-16T11:30:13.834Z,100206.44
2023-02-16T11:32:45.899Z,100204.38
2023-02-16T11:35:17.957Z,100196.72
2023-02-16T11:37:49.697Z,100194.50
2023-02-16T11:40:26.287Z,100185.44
2023-02-16T11:42:59.475Z,100181.84
2023-02-16T11:45:33.009Z,100177.34
2023-02-16T11:48:13.957Z,100167.13
2023-02-16T11:50:57.132Z,100169.91
2023-02-16T11:53:30.804Z,100166.41
2023-02-16T11:56:21.386Z,100166.06
2023-02-16T11:59:12.981Z,100156.84
2023-02-16T12:01:51.027Z,100157.25
2023-02-16T12:04:41.369Z,100150.44
2023-02-16T12:07:16.658Z,100155.38
2023-02-16T12:10:03.105Z,100155.41
2023-02-16T12:12:41.438Z,100150.69
2023-02-16T12:15:16.109Z,100132.91
2023-02-16T12:18:05.288Z,100126.41
2023-02-16T12:20:40.154Z,100118.94
2023-02-16T12:23:11.859Z,100113.59
2023-02-16T12:26:04.189Z,100101.72
2023-02-16T12:28:48.346Z,100103.28
2023-02-16T12:31:22.469Z,100086.00
2023-02-16T12:34:03.957Z,100090.59
2023-02-16T12:36:35.990Z,100079.16
2023-02-16T12:39:22.777Z,100074.59
2023-02-16T12:42:13.606Z,100077.06
2023-02-16T12:44:48.440Z,100069.41
2023-02-16T12:47:28.487Z,100068.53
2023-02-16T12:50:01.980Z,100053.63
2023-02-16T12:52:46.672Z,100064.66
2023-02-16T12:55:20.304Z,100055.16
2023-02-16T12:58:15.194Z,100048.47
2023-02-16T13:00:49.725Z,100048.09
2023-02-16T13:03:33.131Z,100045.59
2023-02-16T13:06:17.588Z,100040.38
2023-02-16T13:08:49.345Z,100041.19
2023-02-16T13:11:28.549Z,100043.13
2023-02-16T13:14:04.625Z,100041.59
2023-02-16T13:16:39.716Z,100034.31
2023-02-16T13:19:15.569Z,100034.47
2023-02-16T13:21:51.758Z,100031.94
2023-02-16T13:24:42.427Z,100023.31
2023-02-16T13:27:35.244Z,100030.91
2023-02-16T13:30:21.270Z,100027.06
2023-02-16T13:33:11.584Z,100024.94
2023-02-16T13:35:47.278Z,100030.72
2023-02-16T13:38:28.412Z,100024.66
2023-02-16T13:41:10.706Z,100021.34
2023-02-16T13:43:42.596Z,100018.34
2023-02-16T13:46:18.221Z,100023.31
2023-02-16T13:48:50.788Z,100012.16
2023-02-16T13:51:24.861Z,100013.94
2023-02-16T13:54:01.538Z,100015.09
2023-02-16T13:56:36.427Z,100015.63
2023-02-16T13:59:21.146Z,100013.03
2023-02-16T14:01:56.958Z,100025.28
2023-02-16T14:04:29.642Z,100020.41
2023-02-16T14:07:05.299Z,100024.25
2023-02-16T14:09:37.166Z,100028.22
2023-02-16T14:12:20.260Z,100029.72
2023-02-16T14:14:52.048Z,100029.41
2023-02-16T14:17:28.544Z,100038.00
2023-02-16T14:20:02.527Z,100044.19
2023-02-16T14:22:37.347Z,100050.09
2023-02-16T14:25:22.271Z,100044.59
2023-02-16T14:27:56.522Z,100049.38
2023-02-16T14:30:34.142Z,100052.03
2023-02-16T14:33:05.866Z,100047.84
2023-02-16T14:35:39.036Z,100048.03
2023-02-16T14:38:31.154Z,100056.28
2023-02-16T14:41:06.375Z,100056.88
2023-02-16T14:43:44.137Z,100054.78
2023-02-16T14:46:24.944Z,100065.78
2023-02-16T14:49:06.624Z,100061.13
2023-02-16T14:51:53.621Z,100066.47
2023-02-16T14:54:37.781Z,100060.81
2023-02-16T14:57:14.995Z,100068.50
2023-02-16T14:59:55.901Z,100062.41
2023-02-16T15:02:32.975Z,100063.66
2023-02-16T15:05:16.294Z,100067.25
2023-02-16T15:07:52.857Z,100068.66
2023-02-16T15:10:29.003Z,100069.75
2023-02-16T15:13:00.862Z,100069.75
2023-02-16T15:15:45.903Z,100064.09
2023-02-16T15:18:20.034Z,100069.56
2023-02-16T15:20:53.292Z,100074.13
2023-02-16T15:23:26.564Z,100072.16
2023-02-16T15:26:00.181Z,100061.31
2023-02-16T15:28:36.535Z,100064.00
2023-02-16T15:31:11.798Z,100062.50
2023-02-16T15:33:44.957Z,100076.34
2023-02-16T15:36:18.114Z,100070.38
2023-02-16T15:38:52.752Z,100073.66
2023-02-16T15:41:30.345Z,100065.78
2023-02-16T15:44:03.646Z,100061.97
2023-02-16T15:46:37.466Z,100057.06
2023-02-16T15:49:29.981Z,100058.94
2023-02-16T15:52:02.081Z,100061.44
2023-02-16T15:54:35.681Z,100052.84
2023-02-16T15:57:26.385Z,100046.69
2023-02-16T15:59:59.266Z,100049.97
2023-02-16T16:02:33.675Z,100054.16
2023-02-16T16:05:09.821Z,100055.22
2023-02-16T16:07:41.891Z,100056.72
2023-02-16T16:10:16.633Z,100060.22
2023-02-16T16:12:49.257Z,100053.00
2023-02-16T16:15:23.163Z,100061.94
2023-02-16T16:17:56.076Z,100055.84
2023-02-16T16:20:29.319Z,100060.16
2023-02-16T16:23:01.124Z,100058.94
2023-02-16T16:25:35.994Z,100058.75
2023-02-16T16:28:09.106Z,100060.31
2023-02-16T16:30:47.006Z,100061.56
2023-02-16T16:33:19.146Z,100062.78
2023-02-16T16:35:51.726Z,100065.66
2023-02-16T16:38:28.536Z,100067.38
2023-02-16T16:41:02.817Z,100071.00
2023-02-16T16:43:50.371Z,100072.44
2023-02-16T16:46:26.550Z,100075.06
2023-02-16T16:49:03.585Z,100076.25
2023-02-16T16:51:40.068Z,100076.75
2023-02-16T16:54:12.665Z,100075.31
2023-02-16T16:56:44.468Z,100073.50
2023-02-16T16:59:16.665Z,100076.13
2023-02-16T17:01:50.428Z,100095.31
2023-02-16T17:04:22.677Z,100089.03
2023-02-16T17:06:54.528Z,100087.69
2023-02-16T17:09:26.164Z,100090.41
2023-02-16T17:11:58.122Z,100097.94
2023-02-16T17:14:32.556Z,100092.81
2023-02-16T17:17:06.136Z,100092.91
2023-02-16T17:19:42.499Z,100097.31
2023-02-16T17:22:15.530Z,100096.00
2023-02-16T17:24:47.529Z,100098.38
2023-02-16T17:27:20.165Z,100089.91
2023-02-16T17:29:51.892Z,100099.06
2023-02-16T17:32:24.535Z,100096.69
2023-02-16T17:34:56.252Z,100100.34
2023-02-16T17:37:28.250Z,100106.53
2023-02-16T17:40:03.088Z,100108.19
2023-02-16T17:42:34.773Z,100114.16
2023-02-16T17:45:09.476Z,100106.53
2023-02-16T17:47:42.578Z,100114.94
2023-02-16T17:50:15.044Z,100120.75
2023-02-16T17:52:46.937Z,100112.41
2023-02-16T17:55:18.864Z,100110.75
2023-02-16T17:57:50.674Z,100109.28
2023-02-16T18:00:22.849Z,100103.91
2023-02-16T18:02:54.515Z,100102.47
2023-02-16T18:05:26.263Z,100112.66
2023-02-16T18:07:58.172Z,100119.66
2023-02-16T18:10:46.089Z,100121.44
2023-02-16T18:13:18.094Z,100112.25
2023-02-16T18:15:50.276Z,100115.44
2023-02-16T18:18:21.944Z,100114.91
2023-02-16T18:20:53.766Z,100111.34
2023-02-16T18:23:25.485Z,100104.44
2023-02-16T18:26:00.240Z,100107.41
2023-02-16T18:28:33.026Z,100111.09
2023-02-16T18:31:05.609Z,100107.00
2023-02-16T18:33:37.626Z,100107.63
2023-02-16T18:36:09.522Z,100108.25
2023-02-16T18:38:41.230Z,100102.28
2023-02-16T18:41:13.173Z,100107.84
2023-02-16T18:43:44.790Z,100102.09
2023-02-16T18:46:17.036Z,100111.72
2023-02-16T18:48:48.716Z,100102.09
2023-02-16T18:51:23.625Z,100109.84
2023-02-16T18:53:56.662Z,100109.84
2023-02-16T18:56:28.317Z,100099.50
2023-02-16T18:59:00.020Z,100105.47
2023-02-16T19:01:32.647Z,100104.63
2023-02-16T19:04:05.214Z,100103.69
2023-02-16T19:06:36.955Z,100100.44
2023-02-16T19:09:08.827Z,100101.06
2023-02-16T19:11:40.644Z,100091.31
2023-02-16T19:14:12.576Z,100093.00
2023-02-16T19:16:44.953Z,100091.81
2023-02-16T19:19:16.626Z,100084.81
2023-02-16T19:21:48.422Z,100089.94
2023-02-16T19:24:20.143Z,100091.50
2023-02-16T19:26:51.834Z,100096.50
2023-02-16T19:29:23.477Z,100103.06
2023-02-16T19:31:55.696Z,100102.72
2023-02-16T19:34:27.445Z,100106.72
2023-02-16T19:36:59.150Z,100098.63
2023-02-16T19:39:30.756Z,100096.75
2023-02-16T19:42:04.538Z,100093.88
2023-02-16T19:44:36.800Z,100102.38
2023-02-16T19:47:08.472Z,100101.06
2023-02-16T19:49:40.160Z,100099.66
2023-02-16T19:52:11.809Z,100099.09
2023-02-16T19:54:43.436Z,100089.38
2023-02-16T19:57:16.250Z,100093.72
2023-02-16T19:59:48.160Z,100090.16
2023-02-16T20:02:19.782Z,100091.97
2023-02-16T20:04:53.363Z,100093.88
2023-02-16T20:07:25.017Z,100086.84
2023-02-16T20:09:56.615Z,100090.56
2023-02-16T20:12:28.805Z,100089.97
2023-02-16T20:15:00.575Z,100085.91
2023-02-16T20:17:32.163Z,100095.09
2023-02-16T20:20:05.400Z,100097.00
2023-02-16T20:22:37.026Z,100089.03
2023-02-16T20:25:08.794Z,100090.31
2023-02-16T20:27:40.879Z,100091.38
2023-02-16T20:30:20.466Z,100093.84
2023-02-16T20:32:52.264Z,100096.94
2023-02-16T20:35:23.942Z,100090.63
2023-02-16T20:37:55.556Z,100092.75
2023-02-16T20:40:27.213Z,100087.00
2023-02-16T20:42:58.863Z,100087.47
2023-02-16T20:45:30.556Z,100090.53
2023-02-16T20:48:04.184Z,100086.72
2023-02-16T20:50:36.175Z,100083.72
2023-02-16T20:54:16.360Z,100078.88
2023-02-16T20:56:47.987Z,100074.19
2023-02-16T20:59:19.958Z,100075.00
2023-02-16T21:01:52.872Z,100075.00
2023-02-16T21:04:24.840Z,100071.81
2023-02-16T21:06:57.040Z,100073.63
2023-02-16T21:09:28.784Z,100074.44
2023-02-16T21:12:00.810Z,100070.16
2023-02-16T21:14:32.529Z,100076.97
2023-02-16T21:17:04.290Z,100072.78
2023-02-16T21:19:37.915Z,100077.31
2023-02-16T21:22:09.716Z,100068.63
2023-02-16T21:24:42.147Z,100067.06
2023-02-16T21:27:13.822Z,100072.78
2023-02-16T21:29:45.560Z,100064.66
2023-02-16T21:32:17.230Z,100063.69
2023-02-16T21:34:48.966Z,100066.91
2023-02-16T21:37:20.968Z,100059.72
2023-02-16T21:40:11.494Z,100055.28
2023-02-16T21:42:43.182Z,100047.16
2023-02-16T21:45:14.968Z,100047.63
2023-02-16T21:48:06.285Z,100047.34
2023-02-16T21:50:40.320Z,100041.97
2023-02-16T21:53:12.038Z,100050.44
2023-02-16T21:56:02.360Z,100046.03
2023-02-16T21:58:34.225Z,100046.03
2023-02-16T22:01:06.039Z,100049.44
2023-02-16T22:03:38.268Z,100056.66
2023-02-16T22:06:10.984Z,100058.03
2023-02-16T22:08:42.786Z,100048.78
2023-02-16T22:11:14.904Z,100051.28
2023-02-16T22:13:46.711Z,100053.44
2023-02-16T22:16:19.201Z,100054.16
2023-02-16T22:19:03.744Z,100052.34
2023-02-16T22:21:38.546Z,100059.28
2023-02-16T22:24:13.345Z,100052.59
2023-02-16T22:26:45.864Z,100047.72
2023-02-16T22:29:18.687Z,100045.94
2023-02-16T22:31:50.425Z,100049.16
2023-02-16T22:34:22.603Z,100043.63
2023-02-16T22:36:54.459Z,100045.03
2023-02-16T22:39:26.187Z,100042.28
2023-02-16T22:41:57.884Z,100038.69
2023-02-16T22:44:29.635Z,100047.16
2023-02-16T22:47:01.345Z,100053.94
2023-02-16T22:49:33.105Z,100053.22
2023-02-16T22:52:05.097Z,100048.13
2023-02-16T22:54:37.707Z,100041.06
2023-02-16T22:57:09.471Z,100040.09
2023-02-16T22:59:41.140Z,100034.59
2023-02-16T23:02:13.867Z,100028.38
2023-02-16T23:04:45.985Z,100021.72
2023-02-16T23:07:17.722Z,100015.38
2023-02-16T23:09:49.606Z,100018.69
2023-02-16T23:12:21.323Z,100006.25
2023-02-16T23:14:53.761Z,100001.97
2023-02-16T23:17:25.579Z,100004.59
2023-02-16T23:19:57.361Z,100003.63
2023-02-16T23:22:29.639Z,99994.91
2023-02-16T23:25:20.027Z,99992.16
2023-02-16T23:27:53.187Z,99991.88
2023-02-16T23:30:25.197Z,99981.38
2023-02-16T23:32:57.276Z,99989.97
2023-02-16T23:35:28.910Z,99988.06
2023-02-16T23:38:02.901Z,99987.22
2023-02-16T23:40:34.820Z,99986.94
2023-02-16T23:43:06.563Z,99984.19
2023-02-16T23:45:38.991Z,99989.31
2023-02-16T23:48:10.682Z,99982.50
2023-02-16T23:50:42.519Z,99977.53
2023-02-16T23:53:14.191Z,99972.41
2023-02-16T23:55:59.904Z,99971.56
2023-02-16T23:58:36.818Z,99962.72
